sensor_id;sensor_type;location;lat;lon;timestamp;pressure;altitude;pressure_sealevel;temperature;humidity
42601;BME280;28229;48.856;9.088;2023-02-17T00:01:21;98789.91;;;8.70;60.04
42601;BME280;28229;48.856;9.088;2023-02-17T00:03:49;98796.16;;;8.69;60.01
42601;BME280;28229;48.856;9.088;2023-02-17T00:06:17;98791.34;;;8.73;60.00
42601;BME280;28229;48.856;9.088;2023-02-17T00:08:44;98796.91;;;8.63;59.72
42601;BME280;28229;48.856;9.088;2023-02-17T00:11:11;98790.63;;;8.64;59.52
42601;BME280;28229;48.856;9.088;2023-02-17T00:13:38;98788.28;;;8.69;59.47
42601;BME280;28229;48.856;9.088;2023-02-17T00:16:08;98786.03;;;8.66;59.36
42601;BME280;28229;48.856;9.088;2023-02-17T00:18:35;98787.84;;;8.66;59.17
42601;BME280;28229;48.856;9.088;2023-02-17T00:21:17;98778.81;;;8.68;59.06
42601;BME280;28229;48.856;9.088;2023-02-17T00:23:44;98784.75;;;8.62;59.25
42601;BME280;28229;48.856;9.088;2023-02-17T00:26:11;98785.13;;;8.59;59.35
42601;BME280;28229;48.856;9.088;2023-02-17T00:28:37;98773.56;;;8.53;59.38
42601;BME280;28229;48.856;9.088;2023-02-17T00:31:06;98772.75;;;8.53;59.33
42601;BME280;28229;48.856;9.088;2023-02-17T00:33:32;98765.88;;;8.52;59.67
42601;BME280;28229;48.856;9.088;2023-02-17T00:36:02;98772.13;;;8.51;59.52
42601;BME280;28229;48.856;9.088;2023-02-17T00:38:29;98767.41;;;8.46;59.53
42601;BME280;28229;48.856;9.088;2023-02-17T00:40:55;98768.63;;;8.44;59.64
42601;BME280;28229;48.856;9.088;2023-02-17T00:43:23;98764.00;;;8.46;59.70
42601;BME280;28229;48.856;9.088;2023-02-17T00:45:49;98764.34;;;8.43;59.67
42601;BME280;28229;48.856;9.088;2023-02-17T00:48:15;98759.09;;;8.43;59.58
42601;BME280;28229;48.856;9.088;2023-02-17T00:50:41;98766.16;;;8.42;59.70
42601;BME280;28229;48.856;9.088;2023-02-17T00:53:07;98775.81;;;8.42;59.84
42601;BME280;28229;48.856;9.088;2023-02-17T00:55:34;98773.38;;;8.40;59.95
42601;BME280;28229;48.856;9.088;2023-02-17T00:58:00;98771.41;;;8.42;59.85
42601;BME280;28229;48.856;9.088;2023-02-17T01:00:26;98778.16;;;8.36;59.94
42601;BME280;28229;48.856;9.088;2023-02-17T01:02:52;98772.94;;;8.36;60.04
42601;BME280;28229;48.856;9.088;2023-02-17T01:05:18;98777.09;;;8.31;60.31
42601;BME280;28229;48.856;9.088;2023-02-17T01:07:45;98772.94;;;8.36;60.09
42601;BME280;28229;48.856;9.088;2023-02-17T01:10:12;98762.78;;;8.33;60.29
42601;BME280;28229;48.856;9.088;2023-02-17T01:12:38;98776.53;;;8.35;60.24
42601;BME280;28229;48.856;9.088;2023-02-17T01:15:05;98774.47;;;8.31;60.57
42601;BME280;28229;48.856;9.088;2023-02-17T01:17:31;98765.41;;;8.33;60.43
42601;BME280;28229;48.856;9.088;2023-02-17T01:19:58;98765.50;;;8.40;60.28
42601;BME280;28229;48.856;9.088;2023-02-17T01:22:24;98770.94;;;8.38;60.21
42601;BME280;28229;48.856;9.088;2023-02-17T01:24:50;98766.63;;;8.46;60.20
42601;BME280;28229;48.856;9.088;2023-02-17T01:27:16;98767.31;;;8.39;60.57
42601;BME280;28229;48.856;9.088;2023-02-17T01:29:44;98759.81;;;8.36;60.43
42601;BME280;28229;48.856;9.088;2023-02-17T01:32:11;98756.75;;;8.48;59.94
42601;BME280;28229;48.856;9.088;2023-02-17T01:34:37;98757.38;;;8.50;60.08
42601;BME280;28229;48.856;9.088;2023-02-17T01:37:06;98755.75;;;8.49;59.94
42601;BME280;28229;48.856;9.088;2023-02-17T01:39:35;98753.41;;;8.54;59.88
42601;BME280;28229;48.856;9.088;2023-02-17T01:42:01;98753.78;;;8.51;59.80
42601;BME280;28229;48.856;9.088;2023-02-17T01:44:32;98748.16;;;8.54;60.00
42601;BME280;28229;48.856;9.088;2023-02-17T01:46:59;98737.91;;;8.59;59.84
42601;BME280;28229;48.856;9.088;2023-02-17T01:49:36;98737.69;;;8.54;60.17
42601;BME280;28229;48.856;9.088;2023-02-17T01:52:11;98734.84;;;8.55;60.16
42601;BME280;28229;48.856;9.088;2023-02-17T01:54:43;98726.78;;;8.57;59.78
42601;BME280;28229;48.856;9.088;2023-02-17T01:57:14;98729.41;;;8.57;60.08
42601;BME280;28229;48.856;9.088;2023-02-17T01:59:41;98737.69;;;8.54;60.22
42601;BME280;28229;48.856;9.088;2023-02-17T02:02:09;98736.03;;;8.53;60.60
42601;BME280;28229;48.856;9.088;2023-02-17T02:04:38;98732.44;;;8.54;60.62
42601;BME280;28229;48.856;9.088;2023-02-17T02:07:31;98733.97;;;8.48;60.84
42601;BME280;28229;48.856;9.088;2023-02-17T02:09:59;98733.50;;;8.45;61.09
42601;BME280;28229;48.856;9.088;2023-02-17T02:12:31;98732.16;;;8.49;61.08
42601;BME280;28229;48.856;9.088;2023-02-17T02:15:02;98733.34;;;8.46;61.15
42601;BME280;28229;48.856;9.088;2023-02-17T02:33:32;98710.19;;;8.35;61.29
42601;BME280;28229;48.856;9.088;2023-02-17T02:38:56;98714.34;;;8.29;61.61
42601;BME280;28229;48.856;9.088;2023-02-17T02:41:35;98711.72;;;8.29;61.65
42601;BME280;28229;48.856;9.088;2023-02-17T02:44:08;98701.34;;;8.36;61.09
42601;BME280;28229;48.856;9.088;2023-02-17T02:46:34;98699.97;;;8.40;61.11
42601;BME280;28229;48.856;9.088;2023-02-17T02:49:02;98701.41;;;8.43;61.11
42601;BME280;28229;48.856;9.088;2023-02-17T02:51:54;98691.47;;;8.38;61.25
42601;BME280;28229;48.856;9.088;2023-02-17T02:54:39;98695.53;;;8.41;61.32
42601;BME280;28229;48.856;9.088;2023-02-17T02:57:18;98693.25;;;8.37;61.47
42601;BME280;28229;48.856;9.088;2023-02-17T03:02:48;98687.03;;;8.38;61.70
42601;BME280;28229;48.856;9.088;2023-02-17T03:08:13;98682.50;;;8.32;61.93
42601;BME280;28229;48.856;9.088;2023-02-17T03:10:49;98673.56;;;8.27;61.87
42601;BME280;28229;48.856;9.088;2023-02-17T03:13:17;98673.03;;;8.31;61.55
42601;BME280;28229;48.856;9.088;2023-02-17T03:15:44;98673.28;;;8.36;61.08
42601;BME280;28229;48.856;9.088;2023-02-17T03:18:11;98671.31;;;8.38;61.13
42601;BME280;28229;48.856;9.088;2023-02-17T03:20:48;98669.03;;;8.35;61.16
42601;BME280;28229;48.856;9.088;2023-02-17T03:23:18;98686.31;;;8.45;60.99
42601;BME280;28229;48.856;9.088;2023-02-17T03:25:44;98686.75;;;8.48;60.82
42601;BME280;28229;48.856;9.088;2023-02-17T03:28:13;98688.22;;;8.51;60.80
42601;BME280;28229;48.856;9.088;2023-02-17T03:30:40;98690.25;;;8.55;60.66
42601;BME280;28229;48.856;9.088;2023-02-17T03:33:07;98686.03;;;8.54;60.66
42601;BME280;28229;48.856;9.088;2023-02-17T03:35:33;98687.09;;;8.60;60.37
42601;BME280;28229;48.856;9.088;2023-02-17T03:37:59;98690.34;;;8.62;60.51
42601;BME280;28229;48.856;9.088;2023-02-17T03:40:26;98689.00;;;8.66;60.60
42601;BME280;28229;48.856;9.088;2023-02-17T03:42:52;98685.47;;;8.59;60.82
42601;BME280;28229;48.856;9.088;2023-02-17T03:45:18;98689.72;;;8.60;60.98
42601;BME280;28229;48.856;9.088;2023-02-17T03:47:44;98687.72;;;8.62;60.82
42601;BME280;28229;48.856;9.088;2023-02-17T03:50:10;98688.72;;;8.61;61.13
42601;BME280;28229;48.856;9.088;2023-02-17T03:52:36;98679.22;;;8.60;61.15
42601;BME280;28229;48.856;9.088;2023-02-17T03:55:03;98689.72;;;8.60;61.30
42601;BME280;28229;48.856;9.088;2023-02-17T03:57:29;98692.88;;;8.55;61.15
42601;BME280;28229;48.856;9.088;2023-02-17T03:59:57;98694.44;;;8.50;61.43
42601;BME280;28229;48.856;9.088;2023-02-17T04:02:23;98691.19;;;8.48;61.74
42601;BME280;28229;48.856;9.088;2023-02-17T04:04:49;98692.84;;;8.49;61.67
42601;BME280;28229;48.856;9.088;2023-02-17T04:07:15;98696.44;;;8.48;61.78
42601;BME280;28229;48.856;9.088;2023-02-17T04:09:41;98700.06;;;8.47;62.03
42601;BME280;28229;48.856;9.088;2023-02-17T04:12:07;98702.03;;;8.45;62.58
42601;BME280;28229;48.856;9.088;2023-02-17T04:14:34;98706.38;;;8.37;63.38
42601;BME280;28229;48.856;9.088;2023-02-17T04:17:00;98696.91;;;8.36;63.41
42601;BME280;28229;48.856;9.088;2023-02-17T04:19:26;98696.53;;;8.39;63.85
42601;BME280;28229;48.856;9.088;2023-02-17T04:21:52;98705.47;;;8.30;64.41
42601;BME280;28229;48.856;9.088;2023-02-17T04:24:19;98696.63;;;8.31;64.59
42601;BME280;28229;48.856;9.088;2023-02-17T04:26:45;98695.75;;;8.24;65.08
42601;BME280;28229;48.856;9.088;2023-02-17T04:29:11;98700.22;;;8.30;64.60
42601;BME280;28229;48.856;9.088;2023-02-17T04:31:37;98700.84;;;8.32;64.85
42601;BME280;28229;48.856;9.088;2023-02-17T04:34:03;98695.38;;;8.27;64.96
42601;BME280;28229;48.856;9.088;2023-02-17T04:36:29;98694.09;;;8.23;65.04
42601;BME280;28229;48.856;9.088;2023-02-17T04:38:55;98682.50;;;8.32;64.63
42601;BME280;28229;48.856;9.088;2023-02-17T04:41:21;98679.88;;;8.32;64.87
42601;BME280;28229;48.856;9.088;2023-02-17T04:43:48;98680.97;;;8.38;64.60
42601;BME280;28229;48.856;9.088;2023-02-17T04:46:14;98680.16;;;8.37;64.57
42601;BME280;28229;48.856;9.088;2023-02-17T04:48:40;98684.06;;;8.42;64.57
42601;BME280;28229;48.856;9.088;2023-02-17T04:51:06;98686.03;;;8.39;65.09
42601;BME280;28229;48.856;9.088;2023-02-17T04:53:32;98684.78;;;8.35;65.54
42601;BME280;28229;48.856;9.088;2023-02-17T04:55:59;98682.78;;;8.37;66.21
42601;BME280;28229;48.856;9.088;2023-02-17T04:58:25;98685.03;;;8.41;66.98
42601;BME280;28229;48.856;9.088;2023-02-17T05:00:51;98681.78;;;8.38;67.71
42601;BME280;28229;48.856;9.088;2023-02-17T05:03:17;98687.16;;;8.45;67.90
42601;BME280;28229;48.856;9.088;2023-02-17T05:05:44;98683.75;;;8.51;68.25
42601;BME280;28229;48.856;9.088;2023-02-17T05:08:10;98677.47;;;8.46;69.06
42601;BME280;28229;48.856;9.088;2023-02-17T05:10:36;98673.47;;;8.50;69.22
42601;BME280;28229;48.856;9.088;2023-02-17T05:13:03;98682.69;;;8.46;70.00
42601;BME280;28229;48.856;9.088;2023-02-17T05:15:30;98682.34;;;8.49;70.28
42601;BME280;28229;48.856;9.088;2023-02-17T05:17:56;98677.63;;;8.44;70.89
42601;BME280;28229;48.856;9.088;2023-02-17T05:20:22;98675.81;;;8.45;70.96
42601;BME280;28229;48.856;9.088;2023-02-17T05:22:48;98675.34;;;8.41;71.12
42601;BME280;28229;48.856;9.088;2023-02-17T05:25:14;98678.53;;;8.36;71.12
42601;BME280;28229;48.856;9.088;2023-02-17T05:27:51;98683.06;;;8.43;70.80
42601;BME280;28229;48.856;9.088;2023-02-17T05:30:18;98678.44;;;8.45;70.85
42601;BME280;28229;48.856;9.088;2023-02-17T05:33:04;98686.31;;;8.45;70.80
42601;BME280;28229;48.856;9.088;2023-02-17T05:35:33;98688.75;;;8.46;70.84
42601;BME280;28229;48.856;9.088;2023-02-17T05:37:59;98686.97;;;8.47;70.86
42601;BME280;28229;48.856;9.088;2023-02-17T05:40:25;98696.00;;;8.44;71.16
42601;BME280;28229;48.856;9.088;2023-02-17T05:42:51;98690.38;;;8.47;71.39
42601;BME280;28229;48.856;9.088;2023-02-17T05:45:18;98693.19;;;8.46;71.66
42601;BME280;28229;48.856;9.088;2023-02-17T05:47:44;98691.47;;;8.53;71.24
42601;BME280;28229;48.856;9.088;2023-02-17T05:50:10;98694.88;;;8.53;71.38
42601;BME280;28229;48.856;9.088;2023-02-17T05:52:37;98688.84;;;8.53;71.48
42601;BME280;28229;48.856;9.088;2023-02-17T05:55:03;98701.75;;;8.54;71.52
42601;BME280;28229;48.856;9.088;2023-02-17T05:57:30;98697.31;;;8.55;71.59
42601;BME280;28229;48.856;9.088;2023-02-17T05:59:57;98704.56;;;8.53;71.99
42601;BME280;28229;48.856;9.088;2023-02-17T06:02:23;98701.84;;;8.61;72.08
42601;BME280;28229;48.856;9.088;2023-02-17T06:04:49;98700.66;;;8.64;72.36
42601;BME280;28229;48.856;9.088;2023-02-17T06:07:15;98705.09;;;8.63;72.93
42601;BME280;28229;48.856;9.088;2023-02-17T06:09:41;98704.25;;;8.63;73.49
42601;BME280;28229;48.856;9.088;2023-02-17T06:12:08;98705.81;;;8.57;74.28
42601;BME280;28229;48.856;9.088;2023-02-17T06:14:34;98703.00;;;8.58;74.61
42601;BME280;28229;48.856;9.088;2023-02-17T06:17:00;98713.94;;;8.62;75.13
42601;BME280;28229;48.856;9.088;2023-02-17T06:19:28;98710.06;;;8.58;75.54
42601;BME280;28229;48.856;9.088;2023-02-17T06:21:55;98713.06;;;8.55;76.16
42601;BME280;28229;48.856;9.088;2023-02-17T06:24:23;98716.69;;;8.54;76.70
42601;BME280;28229;48.856;9.088;2023-02-17T06:26:49;98720.75;;;8.56;77.04
42601;BME280;28229;48.856;9.088;2023-02-17T06:29:15;98717.94;;;8.58;77.34
42601;BME280;28229;48.856;9.088;2023-02-17T06:31:41;98725.81;;;8.58;77.81
42601;BME280;28229;48.856;9.088;2023-02-17T06:34:09;98726.06;;;8.63;77.86
42601;BME280;28229;48.856;9.088;2023-02-17T06:36:36;98717.19;;;8.64;77.67
42601;BME280;28229;48.856;9.088;2023-02-17T06:39:02;98722.44;;;8.64;78.38
42601;BME280;28229;48.856;9.088;2023-02-17T06:41:28;98722.63;;;8.63;78.98
42601;BME280;28229;48.856;9.088;2023-02-17T06:43:55;98720.38;;;8.60;78.69
42601;BME280;28229;48.856;9.088;2023-02-17T06:46:21;98724.44;;;8.62;79.26
42601;BME280;28229;48.856;9.088;2023-02-17T06:48:47;98718.06;;;8.71;79.39
42601;BME280;28229;48.856;9.088;2023-02-17T06:51:13;98721.44;;;8.65;79.95
42601;BME280;28229;48.856;9.088;2023-02-17T06:53:39;98729.31;;;8.65;79.24
42601;BME280;28229;48.856;9.088;2023-02-17T06:56:06;98735.81;;;8.69;79.14
42601;BME280;28229;48.856;9.088;2023-02-17T06:58:32;98735.44;;;8.72;79.01
42601;BME280;28229;48.856;9.088;2023-02-17T07:01:00;98737.53;;;8.62;79.43
42601;BME280;28229;48.856;9.088;2023-02-17T07:03:26;98745.13;;;8.72;79.67
42601;BME280;28229;48.856;9.088;2023-02-17T07:05:57;98736.06;;;8.74;79.47
42601;BME280;28229;48.856;9.088;2023-02-17T07:08:24;98744.97;;;8.73;79.36
42601;BME280;28229;48.856;9.088;2023-02-17T07:10:50;98740.88;;;8.71;79.61
42601;BME280;28229;48.856;9.088;2023-02-17T07:13:16;98744.81;;;8.82;79.09
42601;BME280;28229;48.856;9.088;2023-02-17T07:15:43;98749.28;;;8.81;79.02
42601;BME280;28229;48.856;9.088;2023-02-17T07:18:09;98745.28;;;8.85;78.92
42601;BME280;28229;48.856;9.088;2023-02-17T07:20:35;98747.28;;;8.83;78.92
42601;BME280;28229;48.856;9.088;2023-02-17T07:23:01;98743.84;;;8.83;78.72
42601;BME280;28229;48.856;9.088;2023-02-17T07:25:27;98753.13;;;8.85;78.95
42601;BME280;28229;48.856;9.088;2023-02-17T07:27:54;98754.34;;;8.83;79.26
42601;BME280;28229;48.856;9.088;2023-02-17T07:30:21;98760.22;;;8.85;79.23
42601;BME280;28229;48.856;9.088;2023-02-17T07:32:47;98752.97;;;8.87;79.30
42601;BME280;28229;48.856;9.088;2023-02-17T07:35:13;98752.97;;;8.87;79.34
42601;BME280;28229;48.856;9.088;2023-02-17T07:37:39;98757.44;;;8.93;79.02
42601;BME280;28229;48.856;9.088;2023-02-17T07:40:06;98753.84;;;8.94;79.18
42601;BME280;28229;48.856;9.088;2023-02-17T07:42:32;98751.22;;;8.94;78.99
42601;BME280;28229;48.856;9.088;2023-02-17T07:44:59;98760.34;;;8.98;78.99
42601;BME280;28229;48.856;9.088;2023-02-17T07:47:25;98765.59;;;8.98;79.22
42601;BME280;28229;48.856;9.088;2023-02-17T07:49:51;98761.97;;;8.99;78.81
42601;BME280;28229;48.856;9.088;2023-02-17T07:52:17;98758.34;;;9.00;79.06
42601;BME280;28229;48.856;9.088;2023-02-17T07:54:44;98765.47;;;9.06;78.79
42601;BME280;28229;48.856;9.088;2023-02-17T07:57:10;98760.78;;;9.02;79.16
42601;BME280;28229;48.856;9.088;2023-02-17T07:59:36;98768.47;;;9.03;79.46
42601;BME280;28229;48.856;9.088;2023-02-17T08:02:02;98760.59;;;9.03;79.62
42601;BME280;28229;48.856;9.088;2023-02-17T08:04:28;98764.09;;;9.10;79.58
42601;BME280;28229;48.856;9.088;2023-02-17T08:06:55;98762.47;;;9.09;80.12
42601;BME280;28229;48.856;9.088;2023-02-17T08:09:21;98758.28;;;9.15;80.06
42601;BME280;28229;48.856;9.088;2023-02-17T08:12:18;98762.97;;;9.20;80.41
42601;BME280;28229;48.856;9.088;2023-02-17T08:15:14;98764.22;;;9.24;80.18
42601;BME280;28229;48.856;9.088;2023-02-17T08:17:40;98765.84;;;9.25;80.43
42601;BME280;28229;48.856;9.088;2023-02-17T08:20:07;98769.09;;;9.27;80.17
42601;BME280;28229;48.856;9.088;2023-02-17T08:22:33;98775.25;;;9.34;80.62
42601;BME280;28229;48.856;9.088;2023-02-17T08:24:59;98778.09;;;9.39;79.98
42601;BME280;28229;48.856;9.088;2023-02-17T08:27:45;98772.66;;;9.41;79.84
42601;BME280;28229;48.856;9.088;2023-02-17T08:30:12;98771.28;;;9.45;79.77
42601;BME280;28229;48.856;9.088;2023-02-17T08:32:38;98780.59;;;9.47;79.65
42601;BME280;28229;48.856;9.088;2023-02-17T08:35:04;98777.34;;;9.45;80.31
42601;BME280;28229;48.856;9.088;2023-02-17T08:37:31;98785.22;;;9.45;80.44
42601;BME280;28229;48.856;9.088;2023-02-17T08:39:57;98771.31;;;9.51;80.24
42601;BME280;28229;48.856;9.088;2023-02-17T08:42:25;98774.53;;;9.47;80.43
42601;BME280;28229;48.856;9.088;2023-02-17T08:44:51;98768.44;;;9.46;80.84
42601;BME280;28229;48.856;9.088;2023-02-17T08:47:18;98770.94;;;9.55;81.08
42601;BME280;28229;48.856;9.088;2023-02-17T08:49:44;98769.81;;;9.64;81.00
42601;BME280;28229;48.856;9.088;2023-02-17T08:52:10;98766.56;;;9.62;81.03
42601;BME280;28229;48.856;9.088;2023-02-17T08:54:36;98773.47;;;9.63;81.21
42601;BME280;28229;48.856;9.088;2023-02-17T08:57:03;98779.94;;;9.67;81.45
42601;BME280;28229;48.856;9.088;2023-02-17T08:59:29;98767.38;;;9.62;81.45
42601;BME280;28229;48.856;9.088;2023-02-17T09:01:56;98765.16;;;9.66;81.34
42601;BME280;28229;48.856;9.088;2023-02-17T09:04:22;98761.94;;;9.64;81.53
42601;BME280;28229;48.856;9.088;2023-02-17T09:06:51;98768.94;;;9.57;82.22
42601;BME280;28229;48.856;9.088;2023-02-17T09:09:21;98760.50;;;9.61;82.46
42601;BME280;28229;48.856;9.088;2023-02-17T09:11:48;98765.59;;;9.69;81.97
42601;BME280;28229;48.856;9.088;2023-02-17T09:14:14;98764.19;;;9.67;82.00
42601;BME280;28229;48.856;9.088;2023-02-17T09:16:40;98771.06;;;9.68;81.78
42601;BME280;28229;48.856;9.088;2023-02-17T09:19:06;98761.56;;;9.67;82.75
42601;BME280;28229;48.856;9.088;2023-02-17T09:21:33;98756.91;;;9.69;82.56
42601;BME280;28229;48.856;9.088;2023-02-17T09:23:59;98766.69;;;9.75;82.17
42601;BME280;28229;48.856;9.088;2023-02-17T09:26:25;98748.72;;;9.85;81.94
42601;BME280;28229;48.856;9.088;2023-02-17T09:28:51;98764.75;;;9.90;81.66
42601;BME280;28229;48.856;9.088;2023-02-17T09:31:22;98768.47;;;10.03;81.31
42601;BME280;28229;48.856;9.088;2023-02-17T09:33:50;98773.16;;;10.07;81.44
42601;BME280;28229;48.856;9.088;2023-02-17T09:36:23;98785.94;;;10.17;80.82
42601;BME280;28229;48.856;9.088;2023-02-17T09:38:50;98791.00;;;10.19;80.70
42601;BME280;28229;48.856;9.088;2023-02-17T09:41:44;98797.72;;;10.21;81.06
42601;BME280;28229;48.856;9.088;2023-02-17T09:44:22;98796.88;;;10.21;81.25
42601;BME280;28229;48.856;9.088;2023-02-17T09:47:11;98793.31;;;10.28;80.61
42601;BME280;28229;48.856;9.088;2023-02-17T09:49:43;98794.19;;;10.42;80.38
42601;BME280;28229;48.856;9.088;2023-02-17T09:54:58;98799.22;;;10.79;79.54
42601;BME280;28229;48.856;9.088;2023-02-17T09:57:28;98797.25;;;10.88;78.12
42601;BME280;28229;48.856;9.088;2023-02-17T10:00:14;98804.75;;;10.97;78.46
42601;BME280;28229;48.856;9.088;2023-02-17T10:05:27;98801.09;;;11.05;77.14
42601;BME280;28229;48.856;9.088;2023-02-17T10:08:05;98804.56;;;11.05;77.62
42601;BME280;28229;48.856;9.088;2023-02-17T10:10:39;98793.22;;;11.05;78.26
42601;BME280;28229;48.856;9.088;2023-02-17T10:13:08;98790.19;;;11.08;78.49
42601;BME280;28229;48.856;9.088;2023-02-17T10:15:43;98791.66;;;11.37;77.63
42601;BME280;28229;48.856;9.088;2023-02-17T10:18:30;98794.50;;;11.49;77.37
42601;BME280;28229;48.856;9.088;2023-02-17T10:21:27;98786.59;;;11.76;75.70
42601;BME280;28229;48.856;9.088;2023-02-17T10:23:56;98789.25;;;11.96;75.62
42601;BME280;28229;48.856;9.088;2023-02-17T10:32:23;98779.53;;;12.62;71.98
42601;BME280;28229;48.856;9.088;2023-02-17T10:37:43;98777.25;;;12.72;72.65
42601;BME280;28229;48.856;9.088;2023-02-17T10:40:24;98782.13;;;12.75;71.95
42601;BME280;28229;48.856;9.088;2023-02-17T10:42:54;98782.53;;;12.79;71.97
42601;BME280;28229;48.856;9.088;2023-02-17T10:45:34;98771.94;;;12.85;73.08
42601;BME280;28229;48.856;9.088;2023-02-17T10:48:21;98784.63;;;13.02;72.56
42601;BME280;28229;48.856;9.088;2023-02-17T10:50:48;98778.50;;;13.08;71.33
42601;BME280;28229;48.856;9.088;2023-02-17T10:53:20;98765.38;;;13.26;70.77
42601;BME280;28229;48.856;9.088;2023-02-17T10:56:22;98767.38;;;13.38;71.27
42601;BME280;28229;48.856;9.088;2023-02-17T10:59:07;98767.50;;;13.49;70.36
42601;BME280;28229;48.856;9.088;2023-02-17T11:01:40;98768.63;;;13.60;70.74
42601;BME280;28229;48.856;9.088;2023-02-17T11:04:09;98762.44;;;13.66;69.71
42601;BME280;28229;48.856;9.088;2023-02-17T11:06:41;98767.47;;;13.75;68.97
42601;BME280;28229;48.856;9.088;2023-02-17T11:09:21;98758.50;;;13.76;69.69
42601;BME280;28229;48.856;9.088;2023-02-17T11:12:19;98748.50;;;13.78;70.58
42601;BME280;28229;48.856;9.088;2023-02-17T11:14:49;98740.56;;;13.78;70.08
42601;BME280;28229;48.856;9.088;2023-02-17T11:17:38;98742.03;;;13.74;69.66
42601;BME280;28229;48.856;9.088;2023-02-17T11:22:58;98730.78;;;13.60;70.37
42601;BME280;28229;48.856;9.088;2023-02-17T11:25:26;98747.47;;;13.60;71.50
42601;BME280;28229;48.856;9.088;2023-02-17T11:27:59;98750.53;;;13.57;69.65
42601;BME280;28229;48.856;9.088;2023-02-17T11:30:27;98750.59;;;13.50;70.33
42601;BME280;28229;48.856;9.088;2023-02-17T11:32:53;98752.84;;;13.47;71.90
42601;BME280;28229;48.856;9.088;2023-02-17T11:37:50;98753.28;;;13.44;71.72
42601;BME280;28229;48.856;9.088;2023-02-17T11:40:23;98753.72;;;13.41;71.03
42601;BME280;28229;48.856;9.088;2023-02-17T11:42:56;98747.69;;;13.33;71.54
42601;BME280;28229;48.856;9.088;2023-02-17T11:45:26;98748.91;;;13.31;72.26
42601;BME280;28229;48.856;9.088;2023-02-17T11:48:15;98743.41;;;13.32;72.13
42601;BME280;28229;48.856;9.088;2023-02-17T11:50:57;98749.09;;;13.29;72.28
42601;BME280;28229;48.856;9.088;2023-02-17T11:53:41;98743.78;;;13.29;72.06
42601;BME280;28229;48.856;9.088;2023-02-17T11:56:39;98741.16;;;13.29;72.43
42601;BME280;28229;48.856;9.088;2023-02-17T12:02:16;98749.28;;;13.35;73.29
42601;BME280;28229;48.856;9.088;2023-02-17T12:04:53;98748.69;;;13.32;71.98
42601;BME280;28229;48.856;9.088;2023-02-17T12:07:48;98747.09;;;13.31;72.96
42601;BME280;28229;48.856;9.088;2023-02-17T12:13:33;98744.44;;;13.31;72.64
42601;BME280;28229;48.856;9.088;2023-02-17T12:19:03;98751.94;;;13.28;73.16
42601;BME280;28229;48.856;9.088;2023-02-17T12:21:55;98751.34;;;13.32;72.35
42601;BME280;28229;48.856;9.088;2023-02-17T12:24:36;98743.63;;;13.24;72.61
42601;BME280;28229;48.856;9.088;2023-02-17T12:27:32;98744.88;;;13.22;72.24
42601;BME280;28229;48.856;9.088;2023-02-17T12:33:27;98742.03;;;13.23;72.95
42601;BME280;28229;48.856;9.088;2023-02-17T12:36:04;98735.88;;;13.29;72.20
42601;BME280;28229;48.856;9.088;2023-02-17T12:38:34;98734.53;;;13.20;73.19
42601;BME280;28229;48.856;9.088;2023-02-17T12:41:12;98735.88;;;13.29;73.34
42601;BME280;28229;48.856;9.088;2023-02-17T12:43:46;98744.22;;;13.33;72.99
42601;BME280;28229;48.856;9.088;2023-02-17T12:46:24;98742.78;;;13.37;72.52
42601;BME280;28229;48.856;9.088;2023-02-17T12:48:56;98731.75;;;13.40;72.29
42601;BME280;28229;48.856;9.088;2023-02-17T12:51:32;98735.00;;;13.42;72.03
42601;BME280;28229;48.856;9.088;2023-02-17T12:54:12;98737.88;;;13.41;72.28
42601;BME280;28229;48.856;9.088;2023-02-17T12:56:47;98737.88;;;13.41;71.54
42601;BME280;28229;48.856;9.088;2023-02-17T12:59:18;98733.44;;;13.35;71.74
42601;BME280;28229;48.856;9.088;2023-02-17T13:02:13;98737.91;;;13.27;72.15
42601;BME280;28229;48.856;9.088;2023-02-17T13:04:42;98738.72;;;13.35;72.64
42601;BME280;28229;48.856;9.088;2023-02-17T13:07:15;98730.16;;;13.39;72.48
42601;BME280;28229;48.856;9.088;2023-02-17T13:09:44;98732.59;;;13.41;73.04
42601;BME280;28229;48.856;9.088;2023-02-17T13:14:54;98726.03;;;13.43;72.54
42601;BME280;28229;48.856;9.088;2023-02-17T13:17:24;98728.06;;;13.48;72.51
42601;BME280;28229;48.856;9.088;2023-02-17T13:20:22;98732.09;;;13.50;72.42
42601;BME280;28229;48.856;9.088;2023-02-17T13:22:49;98728.81;;;13.55;72.80
42601;BME280;28229;48.856;9.088;2023-02-17T13:25:35;98722.78;;;13.66;72.44
42601;BME280;28229;48.856;9.088;2023-02-17T13:28:16;98718.09;;;13.68;71.80
42601;BME280;28229;48.856;9.088;2023-02-17T13:30:44;98715.03;;;13.71;71.78
42601;BME280;28229;48.856;9.088;2023-02-17T13:35:46;98716.28;;;13.87;71.30
42601;BME280;28229;48.856;9.088;2023-02-17T13:38:24;98715.75;;;13.97;71.29
42601;BME280;28229;48.856;9.088;2023-02-17T13:40:51;98712.84;;;14.05;70.48
42601;BME280;28229;48.856;9.088;2023-02-17T13:43:18;98714.75;;;14.17;70.33
42601;BME280;28229;48.856;9.088;2023-02-17T13:45:52;98713.72;;;14.18;70.56
42601;BME280;28229;48.856;9.088;2023-02-17T13:48:25;98709.53;;;14.10;70.77
42601;BME280;28229;48.856;9.088;2023-02-17T13:50:54;98703.88;;;14.06;71.49
42601;BME280;28229;48.856;9.088;2023-02-17T13:53:40;98707.13;;;14.08;70.81
42601;BME280;28229;48.856;9.088;2023-02-17T13:56:22;98705.91;;;14.04;71.75
42601;BME280;28229;48.856;9.088;2023-02-17T13:58:48;98696.53;;;14.08;72.05
42601;BME280;28229;48.856;9.088;2023-02-17T14:01:20;98697.13;;;14.11;71.47
42601;BME280;28229;48.856;9.088;2023-02-17T14:03:53;98696.38;;;14.22;71.63
42601;BME280;28229;48.856;9.088;2023-02-17T14:06:27;98686.13;;;14.44;71.22
42601;BME280;28229;48.856;9.088;2023-02-17T14:08:55;98691.91;;;14.53;71.16
42601;BME280;28229;48.856;9.088;2023-02-17T14:11:26;98702.16;;;14.79;68.76
42601;BME280;28229;48.856;9.088;2023-02-17T14:13:55;98694.69;;;14.88;68.36
42601;BME280;28229;48.856;9.088;2023-02-17T14:16:39;98696.88;;;14.79;68.45
42601;BME280;28229;48.856;9.088;2023-02-17T14:19:10;98690.94;;;14.96;67.79
42601;BME280;28229;48.856;9.088;2023-02-17T14:21:41;98694.53;;;15.01;67.16
42601;BME280;28229;48.856;9.088;2023-02-17T14:24:23;98687.72;;;15.06;67.59
42601;BME280;28229;48.856;9.088;2023-02-17T14:26:56;98684.47;;;14.92;67.87